sensor_id;sensor_type;location;lat;lon;timestamp;temperature;humidity
42095;DHT22;27753;55.724;37.612;2023-05-16T00:00:18;13.40;66.00
42095;DHT22;27753;55.724;37.612;2023-05-16T00:02:44;13.30;66.20
42095;DHT22;27753;55.724;37.612;2023-05-16T00:05:10;13.30;66.60
42095;DHT22;27753;55.724;37.612;2023-05-16T00:07:40;13.30;67.00
42095;DHT22;27753;55.724;37.612;2023-05-16T00:10:07;13.20;67.00
42095;DHT22;27753;55.724;37.612;2023-05-16T00:12:33;13.20;67.40
42095;DHT22;27753;55.724;37.612;2023-05-16T00:15:01;13.10;67.50
42095;DHT22;27753;55.724;37.612;2023-05-16T00:17:27;13.10;67.70
42095;DHT22;27753;55.724;37.612;2023-05-16T00:19:54;13.00;67.90
42095;DHT22;27753;55.724;37.612;2023-05-16T00:22:23;13.00;68.20
42095;DHT22;27753;55.724;37.612;2023-05-16T00:24:50;13.00;68.30
42095;DHT22;27753;55.724;37.612;2023-05-16T00:27:15;12.90;68.40
42095;DHT22;27753;55.724;37.612;2023-05-16T00:29:41;12.90;68.40
42095;DHT22;27753;55.724;37.612;2023-05-16T00:32:07;12.90;68.60
42095;DHT22;27753;55.724;37.612;2023-05-16T00:34:34;12.80;68.80
42095;DHT22;27753;55.724;37.612;2023-05-16T00:37:00;12.80;69.00
42095;DHT22;27753;55.724;37.612;2023-05-16T00:39:26;12.80;69.30
42095;DHT22;27753;55.724;37.612;2023-05-16T00:41:52;12.80;69.60
42095;DHT22;27753;55.724;37.612;2023-05-16T00:44:18;12.70;69.90
42095;DHT22;27753;55.724;37.612;2023-05-16T00:46:44;12.70;70.10
42095;DHT22;27753;55.724;37.612;2023-05-16T00:49:10;12.70;70.20
42095;DHT22;27753;55.724;37.612;2023-05-16T00:51:38;12.70;70.50
42095;DHT22;27753;55.724;37.612;2023-05-16T00:54:04;12.70;70.60
42095;DHT22;27753;55.724;37.612;2023-05-16T00:56:30;12.60;69.70
42095;DHT22;27753;55.724;37.612;2023-05-16T00:58:56;12.60;70.50
42095;DHT22;27753;55.724;37.612;2023-05-16T01:01:24;12.50;70.80
42095;DHT22;27753;55.724;37.612;2023-05-16T01:03:50;12.50;71.30
42095;DHT22;27753;55.724;37.612;2023-05-16T01:06:16;12.50;71.50
42095;DHT22;27753;55.724;37.612;2023-05-16T01:08:42;12.40;72.30
42095;DHT22;27753;55.724;37.612;2023-05-16T01:11:33;12.50;71.70
42095;DHT22;27753;55.724;37.612;2023-05-16T01:14:22;12.50;71.80
42095;DHT22;27753;55.724;37.612;2023-05-16T01:22:02;12.60;71.50
42095;DHT22;27753;55.724;37.612;2023-05-16T01:24:44;12.70;71.00
42095;DHT22;27753;55.724;37.612;2023-05-16T01:27:13;12.80;71.20
42095;DHT22;27753;55.724;37.612;2023-05-16T01:29:40;12.70;70.90
42095;DHT22;27753;55.724;37.612;2023-05-16T01:32:06;12.80;70.60
42095;DHT22;27753;55.724;37.612;2023-05-16T01:34:32;12.90;70.50
42095;DHT22;27753;55.724;37.612;2023-05-16T01:37:29;12.90;70.60
42095;DHT22;27753;55.724;37.612;2023-05-16T01:40:03;12.90;70.80
42095;DHT22;27753;55.724;37.612;2023-05-16T01:42:37;12.90;71.30
42095;DHT22;27753;55.724;37.612;2023-05-16T01:47:46;12.80;70.40
42095;DHT22;27753;55.724;37.612;2023-05-16T01:50:16;12.80;70.60
42095;DHT22;27753;55.724;37.612;2023-05-16T01:53:07;12.70;70.70
42095;DHT22;27753;55.724;37.612;2023-05-16T01:55:46;12.70;70.40
42095;DHT22;27753;55.724;37.612;2023-05-16T01:58:19;12.70;70.20
42095;DHT22;27753;55.724;37.612;2023-05-16T02:00:45;12.70;70.50
42095;DHT22;27753;55.724;37.612;2023-05-16T02:03:11;12.70;70.80
42095;DHT22;27753;55.724;37.612;2023-05-16T02:05:37;12.70;70.60
42095;DHT22;27753;55.724;37.612;2023-05-16T02:08:04;12.70;70.50
42095;DHT22;27753;55.724;37.612;2023-05-16T02:10:30;12.70;70.50
42095;DHT22;27753;55.724;37.612;2023-05-16T02:12:56;12.70;70.90
42095;DHT22;27753;55.724;37.612;2023-05-16T02:15:22;12.70;70.90
42095;DHT22;27753;55.724;37.612;2023-05-16T02:17:48;12.70;70.90
42095;DHT22;27753;55.724;37.612;2023-05-16T02:20:14;12.80;70.80
42095;DHT22;27753;55.724;37.612;2023-05-16T02:22:40;12.80;70.90
42095;DHT22;27753;55.724;37.612;2023-05-16T02:25:08;12.80;70.90
42095;DHT22;27753;55.724;37.612;2023-05-16T02:27:35;12.80;71.00
42095;DHT22;27753;55.724;37.612;2023-05-16T02:30:01;12.80;71.10
42095;DHT22;27753;55.724;37.612;2023-05-16T02:32:27;12.90;71.00
42095;DHT22;27753;55.724;37.612;2023-05-16T02:34:52;12.90;70.80
42095;DHT22;27753;55.724;37.612;2023-05-16T02:37:18;12.90;70.70
42095;DHT22;27753;55.724;37.612;2023-05-16T02:39:44;13.00;70.70
42095;DHT22;27753;55.724;37.612;2023-05-16T02:42:10;13.00;70.60
42095;DHT22;27753;55.724;37.612;2023-05-16T02:44:36;13.10;70.40
42095;DHT22;27753;55.724;37.612;2023-05-16T02:47:02;13.20;70.40
42095;DHT22;27753;55.724;37.612;2023-05-16T02:49:28;13.30;70.30
42095;DHT22;27753;55.724;37.612;2023-05-16T02:51:54;13.40;70.00
42095;DHT22;27753;55.724;37.612;2023-05-16T02:54:21;13.50;69.80
42095;DHT22;27753;55.724;37.612;2023-05-16T02:56:47;13.60;69.60
42095;DHT22;27753;55.724;37.612;2023-05-16T02:59:12;13.60;69.20
42095;DHT22;27753;55.724;37.612;2023-05-16T03:01:38;13.60;69.10
42095;DHT22;27753;55.724;37.612;2023-05-16T03:04:04;13.70;69.20
42095;DHT22;27753;55.724;37.612;2023-05-16T03:06:30;13.80;68.60
42095;DHT22;27753;55.724;37.612;2023-05-16T03:08:56;13.80;68.50
42095;DHT22;27753;55.724;37.612;2023-05-16T03:11:22;13.80;68.60
42095;DHT22;27753;55.724;37.612;2023-05-16T03:13:50;13.90;68.30
42095;DHT22;27753;55.724;37.612;2023-05-16T03:16:16;14.00;68.20
42095;DHT22;27753;55.724;37.612;2023-05-16T03:18:42;14.00;67.80
42095;DHT22;27753;55.724;37.612;2023-05-16T03:21:08;14.10;66.70
42095;DHT22;27753;55.724;37.612;2023-05-16T03:23:34;14.10;66.90
42095;DHT22;27753;55.724;37.612;2023-05-16T03:26:00;14.20;66.80
42095;DHT22;27753;55.724;37.612;2023-05-16T03:28:26;14.20;67.00
42095;DHT22;27753;55.724;37.612;2023-05-16T03:30:52;14.40;66.50
42095;DHT22;27753;55.724;37.612;2023-05-16T03:33:17;14.40;66.30
42095;DHT22;27753;55.724;37.612;2023-05-16T03:35:44;14.60;66.10
42095;DHT22;27753;55.724;37.612;2023-05-16T03:38:10;14.70;65.50
42095;DHT22;27753;55.724;37.612;2023-05-16T03:40:36;14.80;64.70
42095;DHT22;27753;55.724;37.612;2023-05-16T03:43:02;14.90;64.50
42095;DHT22;27753;55.724;37.612;2023-05-16T03:45:31;14.90;63.40
42095;DHT22;27753;55.724;37.612;2023-05-16T03:47:57;15.00;63.40
42095;DHT22;27753;55.724;37.612;2023-05-16T03:50:23;15.10;63.60
42095;DHT22;27753;55.724;37.612;2023-05-16T03:52:50;15.20;62.60
42095;DHT22;27753;55.724;37.612;2023-05-16T03:55:17;15.20;62.60
42095;DHT22;27753;55.724;37.612;2023-05-16T03:57:43;15.20;62.90
42095;DHT22;27753;55.724;37.612;2023-05-16T04:00:09;15.30;62.10
42095;DHT22;27753;55.724;37.612;2023-05-16T04:02:39;15.40;61.80
42095;DHT22;27753;55.724;37.612;2023-05-16T04:05:07;15.50;62.00
42095;DHT22;27753;55.724;37.612;2023-05-16T04:07:33;15.60;61.80
42095;DHT22;27753;55.724;37.612;2023-05-16T04:09:59;15.70;62.10
42095;DHT22;27753;55.724;37.612;2023-05-16T04:12:25;15.90;61.60
42095;DHT22;27753;55.724;37.612;2023-05-16T04:14:50;16.00;60.90
42095;DHT22;27753;55.724;37.612;2023-05-16T04:17:16;16.10;60.50
42095;DHT22;27753;55.724;37.612;2023-05-16T04:19:42;16.20;60.00
42095;DHT22;27753;55.724;37.612;2023-05-16T04:22:08;16.30;59.90
42095;DHT22;27753;55.724;37.612;2023-05-16T04:24:34;16.40;59.50
42095;DHT22;27753;55.724;37.612;2023-05-16T04:27:00;16.40;58.80
42095;DHT22;27753;55.724;37.612;2023-05-16T04:29:26;16.40;58.70
42095;DHT22;27753;55.724;37.612;2023-05-16T04:31:52;16.50;58.90
42095;DHT22;27753;55.724;37.612;2023-05-16T04:34:18;16.50;58.90
42095;DHT22;27753;55.724;37.612;2023-05-16T04:36:44;16.50;58.90
42095;DHT22;27753;55.724;37.612;2023-05-16T04:39:09;16.60;59.10
42095;DHT22;27753;55.724;37.612;2023-05-16T04:41:36;16.60;58.30
42095;DHT22;27753;55.724;37.612;2023-05-16T04:44:02;16.50;58.20
42095;DHT22;27753;55.724;37.612;2023-05-16T04:46:29;16.60;58.70
42095;DHT22;27753;55.724;37.612;2023-05-16T04:48:56;16.60;58.80
42095;DHT22;27753;55.724;37.612;2023-05-16T04:51:22;16.70;57.70
42095;DHT22;27753;55.724;37.612;2023-05-16T04:53:48;16.70;56.70
42095;DHT22;27753;55.724;37.612;2023-05-16T04:56:14;17.00;56.80
42095;DHT22;27753;55.724;37.612;2023-05-16T04:58:39;17.70;55.80
42095;DHT22;27753;55.724;37.612;2023-05-16T05:01:05;18.40;53.70
42095;DHT22;27753;55.724;37.612;2023-05-16T05:03:31;19.10;52.90
42095;DHT22;27753;55.724;37.612;2023-05-16T05:05:57;20.10;51.30
42095;DHT22;27753;55.724;37.612;2023-05-16T05:08:23;21.00;49.10
42095;DHT22;27753;55.724;37.612;2023-05-16T05:10:49;21.80;47.00
42095;DHT22;27753;55.724;37.612;2023-05-16T05:13:15;22.50;45.90
42095;DHT22;27753;55.724;37.612;2023-05-16T05:15:41;23.10;44.70
42095;DHT22;27753;55.724;37.612;2023-05-16T05:18:06;23.80;43.90
42095;DHT22;27753;55.724;37.612;2023-05-16T05:20:32;24.40;42.70
42095;DHT22;27753;55.724;37.612;2023-05-16T05:22:58;25.00;41.10
42095;DHT22;27753;55.724;37.612;2023-05-16T05:25:25;25.20;39.70
42095;DHT22;27753;55.724;37.612;2023-05-16T05:27:51;25.20;40.00
42095;DHT22;27753;55.724;37.612;2023-05-16T05:30:17;25.50;40.00
42095;DHT22;27753;55.724;37.612;2023-05-16T05:32:42;25.90;39.20
42095;DHT22;27753;55.724;37.612;2023-05-16T05:35:08;26.40;38.60
42095;DHT22;27753;55.724;37.612;2023-05-16T05:37:34;27.00;38.30
42095;DHT22;27753;55.724;37.612;2023-05-16T05:40:00;27.70;37.50
42095;DHT22;27753;55.724;37.612;2023-05-16T05:42:27;28.50;36.90
42095;DHT22;27753;55.724;37.612;2023-05-16T05:44:53;28.90;36.40
42095;DHT22;27753;55.724;37.612;2023-05-16T05:47:19;29.20;35.30
42095;DHT22;27753;55.724;37.612;2023-05-16T05:49:46;29.30;33.80
42095;DHT22;27753;55.724;37.612;2023-05-16T05:52:12;28.00;34.80
42095;DHT22;27753;55.724;37.612;2023-05-16T05:54:38;28.20;35.40
42095;DHT22;27753;55.724;37.612;2023-05-16T05:57:04;29.00;34.60
42095;DHT22;27753;55.724;37.612;2023-05-16T05:59:30;29.70;33.40
42095;DHT22;27753;55.724;37.612;2023-05-16T06:01:56;30.20;33.60
42095;DHT22;27753;55.724;37.612;2023-05-16T06:04:22;30.70;33.10
42095;DHT22;27753;55.724;37.612;2023-05-16T06:06:48;30.60;31.90
42095;DHT22;27753;55.724;37.612;2023-05-16T06:09:14;31.30;32.40
42095;DHT22;27753;55.724;37.612;2023-05-16T06:11:41;32.30;32.00
42095;DHT22;27753;55.724;37.612;2023-05-16T06:14:07;32.40;31.00
42095;DHT22;27753;55.724;37.612;2023-05-16T06:16:34;32.50;30.90
42095;DHT22;27753;55.724;37.612;2023-05-16T06:19:00;33.00;30.30
42095;DHT22;27753;55.724;37.612;2023-05-16T06:21:26;33.50;29.90
42095;DHT22;27753;55.724;37.612;2023-05-16T06:23:52;34.00;29.90
42095;DHT22;27753;55.724;37.612;2023-05-16T06:28:44;35.10;28.10
42095;DHT22;27753;55.724;37.612;2023-05-16T06:31:10;35.20;28.40
42095;DHT22;27753;55.724;37.612;2023-05-16T06:33:36;34.80;28.20
42095;DHT22;27753;55.724;37.612;2023-05-16T06:36:02;34.80;28.20
42095;DHT22;27753;55.724;37.612;2023-05-16T06:38:28;35.20;28.10
42095;DHT22;27753;55.724;37.612;2023-05-16T06:40:53;35.80;28.00
42095;DHT22;27753;55.724;37.612;2023-05-16T06:45:46;36.80;28.10
42095;DHT22;27753;55.724;37.612;2023-05-16T06:48:13;36.90;27.40
42095;DHT22;27753;55.724;37.612;2023-05-16T06:50:41;37.40;27.00
42095;DHT22;27753;55.724;37.612;2023-05-16T06:53:07;37.40;26.90
42095;DHT22;27753;55.724;37.612;2023-05-16T06:55:33;37.00;27.20
42095;DHT22;27753;55.724;37.612;2023-05-16T06:58:00;37.30;27.00
42095;DHT22;27753;55.724;37.612;2023-05-16T07:00:25;37.90;26.90
42095;DHT22;27753;55.724;37.612;2023-05-16T07:02:51;38.60;26.80
42095;DHT22;27753;55.724;37.612;2023-05-16T07:05:17;38.70;26.60
42095;DHT22;27753;55.724;37.612;2023-05-16T07:07:43;38.90;26.40
42095;DHT22;27753;55.724;37.612;2023-05-16T07:10:10;38.60;26.30
42095;DHT22;27753;55.724;37.612;2023-05-16T07:12:36;38.80;26.30
42095;DHT22;27753;55.724;37.612;2023-05-16T07:15:02;39.40;26.40
42095;DHT22;27753;55.724;37.612;2023-05-16T07:17:28;39.30;27.00
42095;DHT22;27753;55.724;37.612;2023-05-16T07:19:54;39.70;25.80
42095;DHT22;27753;55.724;37.612;2023-05-16T07:22:20;39.60;25.40
42095;DHT22;27753;55.724;37.612;2023-05-16T07:24:46;39.70;25.60
42095;DHT22;27753;55.724;37.612;2023-05-16T07:27:12;39.50;25.30
42095;DHT22;27753;55.724;37.612;2023-05-16T07:29:38;39.50;25.40
42095;DHT22;27753;55.724;37.612;2023-05-16T07:34:30;39.90;24.90
42095;DHT22;27753;55.724;37.612;2023-05-16T07:36:56;40.00;24.90
42095;DHT22;27753;55.724;37.612;2023-05-16T07:39:22;39.80;25.00
42095;DHT22;27753;55.724;37.612;2023-05-16T07:41:48;40.20;24.20
42095;DHT22;27753;55.724;37.612;2023-05-16T07:44:14;40.20;24.50
42095;DHT22;27753;55.724;37.612;2023-05-16T07:46:39;40.20;24.70
42095;DHT22;27753;55.724;37.612;2023-05-16T07:49:05;40.10;24.60
42095;DHT22;27753;55.724;37.612;2023-05-16T07:51:31;38.90;25.00
42095;DHT22;27753;55.724;37.612;2023-05-16T07:53:57;38.90;25.10
42095;DHT22;27753;55.724;37.612;2023-05-16T07:56:23;39.80;25.20
42095;DHT22;27753;55.724;37.612;2023-05-16T07:58:49;40.40;24.90
42095;DHT22;27753;55.724;37.612;2023-05-16T08:01:15;40.80;25.00
42095;DHT22;27753;55.724;37.612;2023-05-16T08:03:41;41.20;25.20
42095;DHT22;27753;55.724;37.612;2023-05-16T08:06:07;41.50;24.70
42095;DHT22;27753;55.724;37.612;2023-05-16T08:08:33;41.70;24.60
42095;DHT22;27753;55.724;37.612;2023-05-16T08:10:59;41.80;24.30
42095;DHT22;27753;55.724;37.612;2023-05-16T08:13:25;40.40;24.40
42095;DHT22;27753;55.724;37.612;2023-05-16T08:15:51;40.10;24.80
42095;DHT22;27753;55.724;37.612;2023-05-16T08:18:17;40.10;24.80
42095;DHT22;27753;55.724;37.612;2023-05-16T08:20:43;39.80;24.80
42095;DHT22;27753;55.724;37.612;2023-05-16T08:23:09;39.80;24.40
42095;DHT22;27753;55.724;37.612;2023-05-16T08:25:35;39.80;24.70
42095;DHT22;27753;55.724;37.612;2023-05-16T08:30:27;41.20;24.50
42095;DHT22;27753;55.724;37.612;2023-05-16T08:32:53;41.40;25.00
42095;DHT22;27753;55.724;37.612;2023-05-16T08:35:19;41.50;24.50
42095;DHT22;27753;55.724;37.612;2023-05-16T08:37:45;41.20;24.80
42095;DHT22;27753;55.724;37.612;2023-05-16T08:40:11;41.40;24.40
42095;DHT22;27753;55.724;37.612;2023-05-16T08:42:38;41.70;24.90
42095;DHT22;27753;55.724;37.612;2023-05-16T08:45:05;40.80;24.00
42095;DHT22;27753;55.724;37.612;2023-05-16T08:47:31;40.10;25.00
42095;DHT22;27753;55.724;37.612;2023-05-16T08:49:59;40.10;24.90
42095;DHT22;27753;55.724;37.612;2023-05-16T08:52:27;40.30;24.50
42095;DHT22;27753;55.724;37.612;2023-05-16T08:55:02;38.70;24.30
42095;DHT22;27753;55.724;37.612;2023-05-16T08:57:32;37.60;25.10
42095;DHT22;27753;55.724;37.612;2023-05-16T08:59:59;35.90;25.60
42095;DHT22;27753;55.724;37.612;2023-05-16T09:02:26;35.70;26.10
42095;DHT22;27753;55.724;37.612;2023-05-16T09:04:53;36.90;26.40
42095;DHT22;27753;55.724;37.612;2023-05-16T09:07:22;38.40;25.40
42095;DHT22;27753;55.724;37.612;2023-05-16T09:09:48;38.60;24.50
42095;DHT22;27753;55.724;37.612;2023-05-16T09:12:14;36.20;24.90
42095;DHT22;27753;55.724;37.612;2023-05-16T09:14:40;35.40;25.80
42095;DHT22;27753;55.724;37.612;2023-05-16T09:17:07;36.30;25.80
42095;DHT22;27753;55.724;37.612;2023-05-16T09:19:40;37.50;25.10
42095;DHT22;27753;55.724;37.612;2023-05-16T09:22:11;37.60;25.20
42095;DHT22;27753;55.724;37.612;2023-05-16T09:24:41;38.30;24.90
42095;DHT22;27753;55.724;37.612;2023-05-16T09:27:12;38.70;24.60
42095;DHT22;27753;55.724;37.612;2023-05-16T09:29:49;39.00;24.50
42095;DHT22;27753;55.724;37.612;2023-05-16T09:32:16;38.70;24.60
42095;DHT22;27753;55.724;37.612;2023-05-16T09:34:46;37.90;24.40
42095;DHT22;27753;55.724;37.612;2023-05-16T09:37:19;37.20;25.00
42095;DHT22;27753;55.724;37.612;2023-05-16T09:39:50;37.70;25.10
42095;DHT22;27753;55.724;37.612;2023-05-16T09:42:17;38.40;25.10
42095;DHT22;27753;55.724;37.612;2023-05-16T09:44:49;38.50;24.70
42095;DHT22;27753;55.724;37.612;2023-05-16T09:47:19;38.90;24.90
42095;DHT22;27753;55.724;37.612;2023-05-16T09:49:46;39.30;24.80
42095;DHT22;27753;55.724;37.612;2023-05-16T09:52:16;39.90;24.50
42095;DHT22;27753;55.724;37.612;2023-05-16T09:54:42;39.90;24.40
42095;DHT22;27753;55.724;37.612;2023-05-16T09:57:08;39.50;24.70
42095;DHT22;27753;55.724;37.612;2023-05-16T09:59:38;39.40;24.30
42095;DHT22;27753;55.724;37.612;2023-05-16T10:02:05;39.40;24.30
42095;DHT22;27753;55.724;37.612;2023-05-16T10:04:33;39.30;24.50
42095;DHT22;27753;55.724;37.612;2023-05-16T10:07:02;39.20;24.50
42095;DHT22;27753;55.724;37.612;2023-05-16T10:09:30;38.80;24.40
42095;DHT22;27753;55.724;37.612;2023-05-16T10:11:57;38.60;24.70
42095;DHT22;27753;55.724;37.612;2023-05-16T10:14:27;39.20;24.50
42095;DHT22;27753;55.724;37.612;2023-05-16T10:16:55;39.30;24.40
42095;DHT22;27753;55.724;37.612;2023-05-16T10:19:24;39.10;24.50
42095;DHT22;27753;55.724;37.612;2023-05-16T10:21:53;38.00;24.50
42095;DHT22;27753;55.724;37.612;2023-05-16T10:24:25;37.10;24.90
42095;DHT22;27753;55.724;37.612;2023-05-16T10:26:53;34.10;25.10
42095;DHT22;27753;55.724;37.612;2023-05-16T10:29:19;33.10;26.30
42095;DHT22;27753;55.724;37.612;2023-05-16T10:31:47;31.40;27.40
42095;DHT22;27753;55.724;37.612;2023-05-16T10:34:13;29.50;28.30
42095;DHT22;27753;55.724;37.612;2023-05-16T10:36:39;27.90;29.40
42095;DHT22;27753;55.724;37.612;2023-05-16T10:39:06;26.80;30.40
42095;DHT22;27753;55.724;37.612;2023-05-16T10:41:33;26.10;30.90
42095;DHT22;27753;55.724;37.612;2023-05-16T10:43:59;25.40;31.20
42095;DHT22;27753;55.724;37.612;2023-05-16T10:46:26;24.60;30.80
42095;DHT22;27753;55.724;37.612;2023-05-16T10:48:53;24.00;32.80
42095;DHT22;27753;55.724;37.612;2023-05-16T10:53:52;23.60;34.60
42095;DHT22;27753;55.724;37.612;2023-05-16T10:56:25;23.40;34.90
42095;DHT22;27753;55.724;37.612;2023-05-16T10:58:53;23.20;35.40
42095;DHT22;27753;55.724;37.612;2023-05-16T11:01:26;23.00;35.70
42095;DHT22;27753;55.724;37.612;2023-05-16T11:06:34;22.80;36.60
42095;DHT22;27753;55.724;37.612;2023-05-16T11:11:57;22.60;36.10
42095;DHT22;27753;55.724;37.612;2023-05-16T11:14:34;22.10;36.50
42095;DHT22;27753;55.724;37.612;2023-05-16T11:17:19;21.50;37.40
42095;DHT22;27753;55.724;37.612;2023-05-16T11:19:50;21.20;38.70
42095;DHT22;27753;55.724;37.612;2023-05-16T11:27:44;21.30;38.50
42095;DHT22;27753;55.724;37.612;2023-05-16T11:30:12;21.10;38.40
42095;DHT22;27753;55.724;37.612;2023-05-16T11:32:43;21.10;39.40
42095;DHT22;27753;55.724;37.612;2023-05-16T11:35:11;21.30;39.10
42095;DHT22;27753;55.724;37.612;2023-05-16T11:37:37;21.40;39.10
42095;DHT22;27753;55.724;37.612;2023-05-16T11:40:08;21.50;39.40
42095;DHT22;27753;55.724;37.612;2023-05-16T11:42:43;21.60;38.90
42095;DHT22;27753;55.724;37.612;2023-05-16T11:45:11;21.60;39.50
42095;DHT22;27753;55.724;37.612;2023-05-16T11:47:41;21.60;39.60
42095;DHT22;27753;55.724;37.612;2023-05-16T11:50:17;21.70;39.90
42095;DHT22;27753;55.724;37.612;2023-05-16T11:52:46;21.70;39.60
42095;DHT22;27753;55.724;37.612;2023-05-16T11:55:13;21.80;39.50
42095;DHT22;27753;55.724;37.612;2023-05-16T11:57:40;21.70;39.30
42095;DHT22;27753;55.724;37.612;2023-05-16T12:00:14;21.50;40.10
42095;DHT22;27753;55.724;37.612;2023-05-16T12:02:43;21.40;39.90
42095;DHT22;27753;55.724;37.612;2023-05-16T12:05:09;21.40;40.20
42095;DHT22;27753;55.724;37.612;2023-05-16T12:07:36;21.50;40.50
42095;DHT22;27753;55.724;37.612;2023-05-16T12:12:33;21.70;40.40
42095;DHT22;27753;55.724;37.612;2023-05-16T12:14:59;21.80;39.90
42095;DHT22;27753;55.724;37.612;2023-05-16T12:17:25;21.80;39.80
42095;DHT22;27753;55.724;37.612;2023-05-16T12:19:51;21.80;40.00
42095;DHT22;27753;55.724;37.612;2023-05-16T12:22:18;21.90;39.80
42095;DHT22;27753;55.724;37.612;2023-05-16T12:24:44;21.90;40.00
42095;DHT22;27753;55.724;37.612;2023-05-16T12:27:11;21.90;40.00
42095;DHT22;27753;55.724;37.612;2023-05-16T12:29:37;22.00;39.70
42095;DHT22;27753;55.724;37.612;2023-05-16T12:32:06;21.80;39.00
42095;DHT22;27753;55.724;37.612;2023-05-16T12:34:33;21.60;39.50
42095;DHT22;27753;55.724;37.612;2023-05-16T12:36:59;21.60;39.30
42095;DHT22;27753;55.724;37.612;2023-05-16T12:39:26;21.60;39.90
42095;DHT22;27753;55.724;37.612;2023-05-16T12:41:52;21.60;39.90
42095;DHT22;27753;55.724;37.612;2023-05-16T12:44:18;21.50;40.10
42095;DHT22;27753;55.724;37.612;2023-05-16T12:46:46;21.50;40.30
42095;DHT22;27753;55.724;37.612;2023-05-16T12:49:13;21.50;40.00
42095;DHT22;27753;55.724;37.612;2023-05-16T12:51:39;21.30;40.30
42095;DHT22;27753;55.724;37.612;2023-05-16T12:54:09;21.20;40.30
42095;DHT22;27753;55.724;37.612;2023-05-16T12:56:37;21.00;40.70
42095;DHT22;27753;55.724;37.612;2023-05-16T12:59:03;21.00;41.10
42095;DHT22;27753;55.724;37.612;2023-05-16T13:01:29;21.00;40.80
42095;DHT22;27753;55.724;37.612;2023-05-16T13:03:55;21.00;40.60
42095;DHT22;27753;55.724;37.612;2023-05-16T13:06:21;20.90;40.50
42095;DHT22;27753;55.724;37.612;2023-05-16T13:08:47;20.80;40.60
42095;DHT22;27753;55.724;37.612;2023-05-16T13:11:12;20.80;41.30
42095;DHT22;27753;55.724;37.612;2023-05-16T13:13:38;21.00;41.30
42095;DHT22;27753;55.724;37.612;2023-05-16T13:16:04;21.10;40.90
42095;DHT22;27753;55.724;37.612;2023-05-16T13:18:30;21.10;40.80
42095;DHT22;27753;55.724;37.612;2023-05-16T13:20:56;21.10;40.60
42095;DHT22;27753;55.724;37.612;2023-05-16T13:23:22;21.10;40.70
42095;DHT22;27753;55.724;37.612;2023-05-16T13:25:48;21.20;40.70
42095;DHT22;27753;55.724;37.612;2023-05-16T13:28:14;21.10;40.70
42095;DHT22;27753;55.724;37.612;2023-05-16T13:30:40;21.00;41.10
42095;DHT22;27753;55.724;37.612;2023-05-16T13:33:06;21.00;41.00
42095;DHT22;27753;55.724;37.612;2023-05-16T13:35:32;20.90;41.00
42095;DHT22;27753;55.724;37.612;2023-05-16T13:37:58;20.80;41.00
42095;DHT22;27753;55.724;37.612;2023-05-16T13:40:24;21.20;41.10
42095;DHT22;27753;55.724;37.612;2023-05-16T13:42:49;22.60;39.80
42095;DHT22;27753;55.724;37.612;2023-05-16T13:45:16;23.50;38.20
42095;DHT22;27753;55.724;37.612;2023-05-16T13:47:42;24.70;36.70
42095;DHT22;27753;55.724;37.612;2023-05-16T13:50:08;25.60;35.90
42095;DHT22;27753;55.724;37.612;2023-05-16T13:52:35;26.50;34.70
42095;DHT22;27753;55.724;37.612;2023-05-16T13:55:02;26.60;34.20
42095;DHT22;27753;55.724;37.612;2023-05-16T13:57:28;26.60;33.90
42095;DHT22;27753;55.724;37.612;2023-05-16T13:59:54;26.80;34.20
42095;DHT22;27753;55.724;37.612;2023-05-16T14:02:21;26.90;33.90
42095;DHT22;27753;55.724;37.612;2023-05-16T14:04:47;27.00;33.60
42095;DHT22;27753;55.724;37.612;2023-05-16T14:07:13;27.00;33.80
42095;DHT22;27753;55.724;37.612;2023-05-16T14:09:39;27.40;33.80
42095;DHT22;27753;55.724;37.612;2023-05-16T14:12:05;27.80;33.40
42095;DHT22;27753;55.724;37.612;2023-05-16T14:14:33;27.80;32.90
42095;DHT22;27753;55.724;37.612;2023-05-16T14:16:59;27.90;32.80
42095;DHT22;27753;55.724;37.612;2023-05-16T14:19:25;27.80;32.50
42095;DHT22;27753;55.724;37.612;2023-05-16T14:21:50;27.60;32.80
42095;DHT22;27753;55.724;37.612;2023-05-16T14:24:16;27.70;33.00
42095;DHT22;27753;55.724;37.612;2023-05-16T14:26:42;28.00;32.90
42095;DHT22;27753;55.724;37.612;2023-05-16T14:29:08;28.00;32.60
42095;DHT22;27753;55.724;37.612;2023-05-16T14:31:34;27.20;33.20
42095;DHT22;27753;55.724;37.612;2023-05-16T14:34:03;26.40;33.90
42095;DHT22;27753;55.724;37.612;2023-05-16T14:36:28;26.30;34.60
42095;DHT22;27753;55.724;37.612;2023-05-16T14:38:54;26.50;34.50
42095;DHT22;27753;55.724;37.612;2023-05-16T14:41:21;26.60;34.40
42095;DHT22;27753;55.724;37.612;2023-05-16T14:43:47;26.60;34.20
42095;DHT22;27753;55.724;37.612;2023-05-16T14:46:13;26.30;34.20
42095;DHT22;27753;55.724;37.612;2023-05-16T14:48:38;25.60;35.00
42095;DHT22;27753;55.724;37.612;2023-05-16T14:51:05;25.60;35.20
42095;DHT22;27753;55.724;37.612;2023-05-16T14:53:31;25.70;35.10
42095;DHT22;27753;55.724;37.612;2023-05-16T14:55:57;25.60;35.20
42095;DHT22;27753;55.724;37.612;2023-05-16T14:58:23;25.60;35.10
42095;DHT22;27753;55.724;37.612;2023-05-16T15:00:50;25.60;35.40
42095;DHT22;27753;55.724;37.612;2023-05-16T15:03:16;25.40;35.40
42095;DHT22;27753;55.724;37.612;2023-05-16T15:05:43;25.10;35.80
42095;DHT22;27753;55.724;37.612;2023-05-16T15:08:08;24.70;36.20
42095;DHT22;27753;55.724;37.612;2023-05-16T15:10:34;24.30;36.60
42095;DHT22;27753;55.724;37.612;2023-05-16T15:13:00;23.80;37.40
42095;DHT22;27753;55.724;37.612;2023-05-16T15:15:26;23.40;38.00
42095;DHT22;27753;55.724;37.612;2023-05-16T15:17:53;23.00;38.40
42095;DHT22;27753;55.724;37.612;2023-05-16T15:20:19;22.40;39.00
42095;DHT22;27753;55.724;37.612;2023-05-16T15:22:46;22.10;39.80
42095;DHT22;27753;55.724;37.612;2023-05-16T15:25:11;21.80;40.20
42095;DHT22;27753;55.724;37.612;2023-05-16T15:27:37;21.60;40.50
42095;DHT22;27753;55.724;37.612;2023-05-16T15:30:04;21.50;40.90
42095;DHT22;27753;55.724;37.612;2023-05-16T15:32:30;21.40;41.20
42095;DHT22;27753;55.724;37.612;2023-05-16T15:34:56;21.20;41.30
42095;DHT22;27753;55.724;37.612;2023-05-16T15:37:22;21.10;41.70
42095;DHT22;27753;55.724;37.612;2023-05-16T15:39:48;20.80;42.10
42095;DHT22;27753;55.724;37.612;2023-05-16T15:42:14;20.60;42.60
42095;DHT22;27753;55.724;37.612;2023-05-16T15:44:40;20.50;42.90
42095;DHT22;27753;55.724;37.612;2023-05-16T15:47:06;20.40;43.30